createdAt,value
2022-11-29T00:01:23.413Z,101480.84
2022-11-29T00:03:51.809Z,101473.03
2022-11-29T00:06:22.259Z,101482.41
2022-11-29T00:08:51.721Z,101471.38
2022-11-29T00:11:35.125Z,101467.84
2022-11-29T00:14:03.518Z,101463.59
2022-11-29T00:16:31.476Z,101470.28
2022-11-29T00:18:59.360Z,101466.19
2022-11-29T00:21:27.187Z,101472.94
2022-11-29T00:23:56.611Z,101473.94
2022-11-29T00:26:24.505Z,101470.25
2022-11-29T00:28:52.834Z,101465.97
2022-11-29T00:31:22.492Z,101468.69
2022-11-29T00:33:50.633Z,101466.94
2022-11-29T00:36:18.813Z,101467.75
2022-11-29T00:38:47.374Z,101456.63
2022-11-29T00:41:16.808Z,101453.03
2022-11-29T00:43:44.811Z,101448.06
2022-11-29T00:46:13.087Z,101444.56
2022-11-29T00:48:41.053Z,101456.50
2022-11-29T00:51:09.071Z,101451.38
2022-11-29T00:53:37.692Z,101449.47
2022-11-29T00:56:07.089Z,101454.00
2022-11-29T00:58:36.587Z,101452.06
2022-11-29T01:01:04.936Z,101460.72
2022-11-29T01:03:33.192Z,101457.28
2022-11-29T01:06:05.513Z,101461.75
2022-11-29T01:08:33.581Z,101453.75
2022-11-29T01:11:06.464Z,101460.66
2022-11-29T01:13:36.073Z,101458.13
2022-11-29T01:16:04.406Z,101459.88
2022-11-29T01:18:33.131Z,101461.50
2022-11-29T01:21:07.533Z,101456.34
2022-11-29T01:23:36.475Z,101466.66
2022-11-29T01:26:06.241Z,101466.81
2022-11-29T01:28:36.117Z,101474.34
2022-11-29T01:31:08.009Z,101477.66
2022-11-29T01:33:36.337Z,101470.91
2022-11-29T01:36:05.360Z,101480.34
2022-11-29T01:38:33.533Z,101480.25
2022-11-29T01:41:03.145Z,101479.34
2022-11-29T01:43:31.067Z,101472.28
2022-11-29T01:46:00.684Z,101478.56
2022-11-29T01:48:30.418Z,101475.28
2022-11-29T01:51:01.491Z,101479.53
2022-11-29T01:53:29.900Z,101474.09
2022-11-29T01:56:01.716Z,101466.50
2022-11-29T01:58:29.967Z,101477.84
2022-11-29T02:01:01.548Z,101471.66
2022-11-29T02:03:29.535Z,101472.53
2022-11-29T02:05:57.422Z,101469.94
2022-11-29T02:08:28.869Z,101475.19
2022-11-29T02:11:10.735Z,101479.56
2022-11-29T02:13:41.283Z,101483.72
2022-11-29T02:16:15.506Z,101475.53
2022-11-29T02:18:51.164Z,101475.44
2022-11-29T02:21:26.518Z,101477.84
2022-11-29T02:24:11.629Z,101472.66
2022-11-29T02:27:00.129Z,101474.41
2022-11-29T02:29:41.752Z,101485.59
2022-11-29T02:32:49.174Z,101483.72
2022-11-29T02:35:24.529Z,101479.44
2022-11-29T02:38:13.324Z,101483.72
2022-11-29T02:40:58.996Z,101483.63
2022-11-29T02:43:38.499Z,101478.59
2022-11-29T02:46:17.490Z,101483.72
2022-11-29T02:48:56.620Z,101488.03
2022-11-29T02:51:28.666Z,101489.78
2022-11-29T02:54:00.001Z,101484.59
2022-11-29T02:56:31.081Z,101493.28
2022-11-29T02:59:03.548Z,101494.03
2022-11-29T03:01:35.977Z,101489.81
2022-11-29T03:04:11.483Z,101490.59
2022-11-29T03:06:44.673Z,101494.94
2022-11-29T03:09:18.506Z,101491.47
2022-11-29T03:11:50.723Z,101497.53
2022-11-29T03:14:25.534Z,101498.59
2022-11-29T03:17:02.003Z,101499.19
2022-11-29T03:19:37.918Z,101498.28
2022-11-29T03:22:12.647Z,101496.66
2022-11-29T03:24:47.034Z,101507.72
2022-11-29T03:27:18.924Z,101508.63
2022-11-29T03:29:50.009Z,101511.22
2022-11-29T03:32:22.092Z,101502.63
2022-11-29T03:34:57.783Z,101507.56
2022-11-29T03:37:30.760Z,101515.41
2022-11-29T03:40:00.471Z,101511.38
2022-11-29T03:42:32.525Z,101510.16
2022-11-29T03:45:05.473Z,101504.09
2022-11-29T03:47:38.329Z,101510.09
2022-11-29T03:50:10.675Z,101510.09
2022-11-29T03:52:44.218Z,101515.31
2022-11-29T03:55:20.605Z,101509.31
2022-11-29T03:57:55.709Z,101526.38
2022-11-29T04:00:23.970Z,101522.28
2022-11-29T04:03:27.168Z,101523.88
2022-11-29T04:06:13.426Z,101521.38
2022-11-29T04:09:06.078Z,101518.94
2022-11-29T04:12:02.441Z,101518.75
2022-11-29T04:14:52.017Z,101522.97
2022-11-29T04:17:39.685Z,101530.72
2022-11-29T04:20:24.414Z,101528.38
2022-11-29T04:23:23.780Z,101531.78
2022-11-29T04:26:40.852Z,101535.22
2022-11-29T04:29:20.081Z,101532.75
2022-11-29T04:32:00.222Z,101545.56
2022-11-29T04:34:47.507Z,101535.09
2022-11-29T04:37:24.342Z,101546.28
2022-11-29T04:40:05.045Z,101540.31
2022-11-29T04:43:03.996Z,101536.16
2022-11-29T04:45:49.872Z,101543.81
2022-11-29T04:48:39.222Z,101547.38
2022-11-29T04:51:16.538Z,101543.75
2022-11-29T04:53:51.148Z,101546.22
2022-11-29T04:56:26.626Z,101554.84
2022-11-29T04:59:00.448Z,101554.88
2022-11-29T05:01:34.114Z,101554.03
2022-11-29T05:04:04.233Z,101554.06
2022-11-29T05:06:39.432Z,101561.66
2022-11-29T05:09:12.189Z,101554.69
2022-11-29T05:11:51.448Z,101558.16
2022-11-29T05:14:28.543Z,101564.34
2022-11-29T05:17:09.928Z,101560.13
2022-11-29T05:19:54.637Z,101566.13
2022-11-29T05:22:29.219Z,101563.72
2022-11-29T05:25:03.719Z,101566.78
2022-11-29T05:27:40.639Z,101573.03
2022-11-29T05:30:13.205Z,101573.66
2022-11-29T05:32:50.170Z,101573.47
2022-11-29T05:35:35.880Z,101571.16
2022-11-29T05:38:10.013Z,101575.63
2022-11-29T05:40:45.852Z,101575.63
2022-11-29T05:43:28.912Z,101577.44
2022-11-29T05:46:01.767Z,101579.78
2022-11-29T05:48:34.085Z,101582.47
2022-11-29T05:51:11.449Z,101580.72
2022-11-29T05:53:45.357Z,101583.34
2022-11-29T05:56:16.745Z,101586.56
2022-11-29T05:58:50.885Z,101589.03
2022-11-29T06:01:22.808Z,101593.38
2022-11-29T06:03:59.503Z,101586.69
2022-11-29T06:06:33.838Z,101588.41
2022-11-29T06:09:06.882Z,101584.16
2022-11-29T06:11:36.771Z,101590.09
2022-11-29T06:14:12.407Z,101590.19
2022-11-29T06:16:52.524Z,101591.75
2022-11-29T06:19:41.552Z,101588.28
2022-11-29T06:22:22.929Z,101596.72
2022-11-29T06:25:01.497Z,101601.16
2022-11-29T06:27:43.982Z,101602.13
2022-11-29T06:30:15.768Z,101605.59
2022-11-29T06:32:50.470Z,101608.13
2022-11-29T06:35:34.817Z,101614.88
2022-11-29T06:38:05.605Z,101621.13
2022-11-29T06:40:34.126Z,101621.75
2022-11-29T06:43:02.455Z,101626.72
2022-11-29T06:45:32.806Z,101630.56
2022-11-29T06:48:03.110Z,101640.72
2022-11-29T06:50:36.916Z,101638.19
2022-11-29T06:53:10.783Z,101634.91
2022-11-29T06:55:44.924Z,101633.38
2022-11-29T06:58:24.945Z,101636.53
2022-11-29T07:00:58.163Z,101640.06
2022-11-29T07:03:38.228Z,101649.53
2022-11-29T07:06:13.398Z,101649.34
2022-11-29T07:08:41.666Z,101641.47
2022-11-29T07:11:11.832Z,101645.03
2022-11-29T07:13:40.380Z,101654.19
2022-11-29T07:16:15.451Z,101654.44
2022-11-29T07:18:47.147Z,101655.44
2022-11-29T07:21:20.998Z,101665.63
2022-11-29T07:23:55.979Z,101662.28
2022-11-29T07:26:30.221Z,101666.38
2022-11-29T07:29:14.375Z,101664.78
2022-11-29T07:31:52.672Z,101666.31
2022-11-29T07:34:24.112Z,101669.19
2022-11-29T07:36:59.659Z,101675.13
2022-11-29T07:39:36.938Z,101685.44
2022-11-29T07:42:09.630Z,101688.88
2022-11-29T07:44:41.208Z,101688.00
2022-11-29T07:47:10.745Z,101696.63
2022-11-29T07:49:38.555Z,101688.13
2022-11-29T07:52:06.443Z,101690.69
2022-11-29T07:54:34.587Z,101695.84
2022-11-29T07:57:02.402Z,101691.56
2022-11-29T07:59:30.285Z,101691.69
2022-11-29T08:01:58.773Z,101698.50
2022-11-29T08:04:28.182Z,101704.50
2022-11-29T08:06:59.225Z,101705.97
2022-11-29T08:09:27.120Z,101701.81
2022-11-29T08:11:54.912Z,101701.72
2022-11-29T08:14:22.718Z,101704.38
2022-11-29T08:16:50.575Z,101695.41
2022-11-29T08:19:18.420Z,101699.44
2022-11-29T08:21:48.223Z,101703.88
2022-11-29T08:24:16.173Z,101709.06
2022-11-29T08:26:44.064Z,101704.63
2022-11-29T08:29:11.959Z,101709.75
2022-11-29T08:31:39.879Z,101709.63
2022-11-29T08:34:08.233Z,101714.00
2022-11-29T08:36:36.203Z,101720.78
2022-11-29T08:39:09.370Z,101709.84
2022-11-29T08:41:37.687Z,101721.16
2022-11-29T08:44:05.899Z,101717.56
2022-11-29T08:46:47.652Z,101720.03
2022-11-29T08:49:15.509Z,101723.56
2022-11-29T08:51:43.339Z,101730.41
2022-11-29T08:54:11.623Z,101729.41
2022-11-29T08:59:27.591Z,101735.66
2022-11-29T09:01:55.534Z,101728.00
2022-11-29T09:04:23.454Z,101737.19
2022-11-29T09:06:51.315Z,101727.78
2022-11-29T09:09:20.472Z,101733.88
2022-11-29T09:11:49.743Z,101734.84
2022-11-29T09:14:18.502Z,101730.38
2022-11-29T09:16:46.452Z,101738.91
2022-11-29T09:19:15.341Z,101743.34
2022-11-29T09:21:43.189Z,101743.44
2022-11-29T09:24:10.974Z,101747.78
2022-11-29T09:26:42.086Z,101752.22
2022-11-29T09:29:09.960Z,101750.59
2022-11-29T09:31:37.872Z,101745.41
2022-11-29T09:34:05.779Z,101753.91
2022-11-29T09:36:33.702Z,101757.22
2022-11-29T09:39:03.274Z,101751.13
2022-11-29T09:42:04.408Z,101753.81
2022-11-29T09:44:40.925Z,101747.81
2022-11-29T09:47:22.898Z,101746.78
2022-11-29T09:49:57.300Z,101755.41
2022-11-29T09:52:35.390Z,101746.31
2022-11-29T09:55:10.076Z,101762.56
2022-11-29T09:57:39.949Z,101760.59
2022-11-29T10:00:16.263Z,101764.03
2022-11-29T10:02:47.833Z,101761.59
2022-11-29T10:05:20.592Z,101756.53
2022-11-29T10:07:50.107Z,101761.66
2022-11-29T10:10:22.135Z,101764.41
2022-11-29T10:12:54.235Z,101763.19
2022-11-29T10:15:24.065Z,101770.38
2022-11-29T10:17:57.541Z,101772.31
2022-11-29T10:20:27.077Z,101774.88
2022-11-29T10:22:57.984Z,101773.34
2022-11-29T10:25:27.541Z,101771.56
2022-11-29T10:27:56.711Z,101777.50
2022-11-29T10:30:24.702Z,101786.34
2022-11-29T10:32:57.164Z,101787.16
2022-11-29T10:35:25.286Z,101785.50
2022-11-29T10:38:29.151Z,101789.72
2022-11-29T10:40:48.165Z,101797.63
2022-11-29T10:43:17.444Z,101794.19
2022-11-29T10:45:50.403Z,101799.41
2022-11-29T10:48:19.822Z,101804.66
2022-11-29T10:50:49.451Z,101800.25
2022-11-29T10:53:19.514Z,101796.84
2022-11-29T10:55:50.688Z,101796.09
2022-11-29T10:58:28.053Z,101803.69
2022-11-29T11:00:58.333Z,101798.84
2022-11-29T11:03:33.765Z,101802.22
2022-11-29T11:06:10.788Z,101806.41
2022-11-29T11:08:39.929Z,101810.88
2022-11-29T11:11:08.653Z,101806.38
2022-11-29T11:13:39.219Z,101811.53
2022-11-29T11:16:16.846Z,101809.28
2022-11-29T11:18:45.643Z,101805.91
2022-11-29T11:21:15.952Z,101805.03
2022-11-29T11:23:49.385Z,101813.78
2022-11-29T11:26:17.231Z,101809.31
2022-11-29T11:28:51.434Z,101812.97
2022-11-29T11:31:28.345Z,101814.56
2022-11-29T11:33:56.694Z,101817.16
2022-11-29T11:36:27.108Z,101818.31
2022-11-29T11:38:56.929Z,101814.91
2022-11-29T11:41:48.573Z,101819.06
2022-11-29T11:47:19.584Z,101821.59
2022-11-29T11:49:49.747Z,101825.09
2022-11-29T11:52:22.003Z,101829.94
2022-11-29T11:54:52.921Z,101817.19
2022-11-29T11:57:22.051Z,101824.13
2022-11-29T11:59:52.268Z,101829.19
2022-11-29T12:02:28.123Z,101830.25
2022-11-29T12:04:58.804Z,101833.47
2022-11-29T12:07:59.751Z,101830.03
2022-11-29T12:10:22.325Z,101836.22
2022-11-29T12:12:50.535Z,101830.13
2022-11-29T12:15:21.638Z,101831.97
2022-11-29T12:17:51.839Z,101830.25
2022-11-29T12:20:23.872Z,101834.78
2022-11-29T12:23:04.589Z,101832.00
2022-11-29T12:25:35.859Z,101830.94
2022-11-29T12:28:04.873Z,101833.09
2022-11-29T12:30:34.603Z,101836.56
2022-11-29T12:33:17.720Z,101839.00
2022-11-29T12:36:09.101Z,101839.94
2022-11-29T12:39:04.931Z,101832.25
2022-11-29T12:41:38.265Z,101836.50
2022-11-29T12:44:14.799Z,101840.13
2022-11-29T12:46:48.349Z,101839.84
2022-11-29T12:49:23.052Z,101843.88
2022-11-29T12:51:58.206Z,101842.06
2022-11-29T12:54:42.690Z,101843.00
2022-11-29T12:57:17.658Z,101844.81
2022-11-29T13:00:01.805Z,101849.97
2022-11-29T13:02:42.041Z,101838.94
2022-11-29T13:05:16.916Z,101855.00
2022-11-29T13:07:56.036Z,101847.34
2022-11-29T13:10:31.595Z,101851.69
2022-11-29T13:13:01.612Z,101853.28
2022-11-29T13:15:38.065Z,101854.88
2022-11-29T13:18:13.494Z,101860.13
2022-11-29T13:20:44.625Z,101858.19
2022-11-29T13:23:20.733Z,101863.31
2022-11-29T13:25:51.854Z,101853.88
2022-11-29T13:28:23.812Z,101863.19
2022-11-29T13:30:52.302Z,101857.00
2022-11-29T13:33:27.242Z,101863.91
2022-11-29T13:35:59.644Z,101864.03
2022-11-29T13:38:32.871Z,101872.56
2022-11-29T13:41:03.791Z,101863.19
2022-11-29T13:43:37.871Z,101860.53
2022-11-29T13:46:15.649Z,101865.75
2022-11-29T13:48:50.912Z,101873.41
2022-11-29T13:51:28.034Z,101873.31
2022-11-29T13:53:56.710Z,101874.28
2022-11-29T13:56:32.636Z,101873.47
2022-11-29T13:59:01.577Z,101876.06
2022-11-29T14:01:29.843Z,101873.84
2022-11-29T14:04:06.808Z,101883.28
2022-11-29T14:06:36.155Z,101878.88
2022-11-29T14:09:22.702Z,101876.06
2022-11-29T14:11:55.008Z,101879.63
2022-11-29T14:14:26.949Z,101886.59
2022-11-29T14:16:58.210Z,101887.16
2022-11-29T14:19:33.406Z,101886.28
2022-11-29T14:22:21.830Z,101888.81
2022-11-29T14:25:53.389Z,101894.63
2022-11-29T14:28:32.542Z,101886.28
2022-11-29T14:31:01.861Z,101889.59
2022-11-29T14:33:39.665Z,101897.31
2022-11-29T14:36:38.661Z,101900.84
2022-11-29T14:39:22.380Z,101898.19
2022-11-29T14:41:57.055Z,101889.59
2022-11-29T14:44:28.064Z,101888.63
2022-11-29T14:47:04.558Z,101895.44
2022-11-29T14:49:40.449Z,101889.50
2022-11-29T14:52:23.651Z,101898.88
2022-11-29T14:54:55.361Z,101894.41
2022-11-29T14:58:13.173Z,101903.91
2022-11-29T15:00:53.020Z,101896.13
2022-11-29T15:03:22.980Z,101897.84
2022-11-29T15:05:53.961Z,101903.28
2022-11-29T15:08:33.159Z,101910.81
2022-11-29T15:11:03.966Z,101902.41
2022-11-29T15:13:33.532Z,101902.91
2022-11-29T15:16:31.096Z,101906.31
2022-11-29T15:19:43.895Z,101910.50
2022-11-29T15:22:15.855Z,101912.34
2022-11-29T15:24:56.497Z,101910.72
2022-11-29T15:27:25.182Z,101908.81
2022-11-29T15:29:53.077Z,101914.25
2022-11-29T15:32:25.786Z,101915.00
2022-11-29T15:34:54.643Z,101923.44
2022-11-29T15:37:23.918Z,101921.84
2022-11-29T15:40:04.066Z,101923.53
2022-11-29T15:42:40.071Z,101923.75
2022-11-29T15:45:32.878Z,101925.16
2022-11-29T15:48:13.698Z,101926.09
2022-11-29T15:50:45.711Z,101921.97
2022-11-29T15:53:18.363Z,101927.72
2022-11-29T15:55:49.503Z,101929.56
2022-11-29T15:58:17.770Z,101928.94
2022-11-29T16:00:49.616Z,101932.16
2022-11-29T16:03:22.865Z,101932.94
2022-11-29T16:05:52.554Z,101934.75
2022-11-29T16:08:21.045Z,101934.38
2022-11-29T16:10:53.091Z,101946.31
2022-11-29T16:13:34.000Z,101945.63
2022-11-29T16:16:12.169Z,101949.25
2022-11-29T16:18:42.027Z,101950.78
2022-11-29T16:21:23.947Z,101946.41
2022-11-29T16:23:51.831Z,101949.00
2022-11-29T16:26:22.844Z,101951.59
2022-11-29T16:28:52.142Z,101961.06
2022-11-29T16:31:21.375Z,101958.53
2022-11-29T16:33:51.409Z,101961.84
2022-11-29T16:36:22.046Z,101964.47
2022-11-29T16:38:51.690Z,101957.50
2022-11-29T16:41:26.125Z,101955.97
2022-11-29T16:43:56.127Z,101964.47
2022-11-29T16:46:32.791Z,101963.59
2022-11-29T16:49:03.626Z,101955.78
2022-11-29T16:51:39.755Z,101958.72
2022-11-29T16:54:22.896Z,101951.75
2022-11-29T16:56:53.220Z,101962.03
2022-11-29T16:59:27.157Z,101961.31
2022-11-29T17:01:56.322Z,101958.59
2022-11-29T17:04:24.880Z,101961.16
2022-11-29T17:06:53.564Z,101960.06
2022-11-29T17:09:24.707Z,101963.41
2022-11-29T17:11:54.226Z,101960.97
2022-11-29T17:14:22.146Z,101968.03
2022-11-29T17:16:50.483Z,101963.78
2022-11-29T17:19:18.914Z,101967.91
2022-11-29T17:21:47.536Z,101969.63
2022-11-29T17:24:17.239Z,101976.47
2022-11-29T17:26:45.872Z,101972.81
2022-11-29T17:29:16.522Z,101974.63
2022-11-29T17:31:45.705Z,101977.97
2022-11-29T17:34:14.031Z,101978.88
2022-11-29T17:36:42.013Z,101981.56
2022-11-29T17:39:09.926Z,101981.38
2022-11-29T17:41:38.456Z,101985.03
2022-11-29T17:44:06.473Z,101984.81
2022-11-29T17:46:36.913Z,101989.13
2022-11-29T17:49:07.009Z,101988.97
2022-11-29T17:51:53.802Z,101991.38
2022-11-29T17:54:22.207Z,101987.09
2022-11-29T17:56:50.550Z,101989.84
2022-11-29T17:59:18.573Z,101994.63
2022-11-29T18:01:48.475Z,101999.13
2022-11-29T18:04:16.532Z,101994.66
2022-11-29T18:06:49.344Z,102007.31
2022-11-29T18:09:18.253Z,102002.31
2022-11-29T18:11:49.364Z,102008.97
2022-11-29T18:14:19.674Z,102009.38
2022-11-29T18:16:48.948Z,102012.66
2022-11-29T18:19:18.363Z,102011.75
2022-11-29T18:21:46.348Z,102005.63
2022-11-29T18:24:14.533Z,102014.78
2022-11-29T18:26:42.860Z,102015.75
2022-11-29T18:29:10.979Z,102015.03
2022-11-29T18:31:40.788Z,102019.31
2022-11-29T18:34:11.108Z,102014.00
2022-11-29T18:36:42.765Z,102023.25
2022-11-29T18:39:13.846Z,102023.47
2022-11-29T18:41:42.590Z,102030.75
2022-11-29T18:44:12.244Z,102020.59
2022-11-29T18:46:41.558Z,102028.41
2022-11-29T18:49:12.431Z,102026.69
2022-11-29T18:51:42.202Z,102026.69
2022-11-29T18:54:10.115Z,102021.66
2022-11-29T18:56:38.419Z,102031.84
2022-11-29T18:59:08.535Z,102025.31
2022-11-29T19:01:40.753Z,102035.25
2022-11-29T19:04:11.961Z,102031.16
2022-11-29T19:06:40.415Z,102040.72
2022-11-29T19:09:11.916Z,102042.22
2022-11-29T19:11:39.961Z,102049.31
2022-11-29T19:14:11.440Z,102042.34
2022-11-29T19:16:41.245Z,102048.41
2022-11-29T19:19:10.679Z,102047.25
2022-11-29T19:21:40.061Z,102043.56
2022-11-29T19:24:13.764Z,102052.63
2022-11-29T19:26:44.139Z,102039.63
2022-11-29T19:29:12.050Z,102036.22
2022-11-29T19:31:40.305Z,102034.78
2022-11-29T19:34:08.275Z,102043.16
2022-11-29T19:36:42.760Z,102042.31
2022-11-29T19:39:13.131Z,102040.47
2022-11-29T19:41:42.606Z,102038.94
2022-11-29T19:44:12.583Z,102037.19
2022-11-29T19:46:42.389Z,102039.66
2022-11-29T19:49:10.720Z,102043.16
2022-11-29T19:51:40.744Z,102042.16
2022-11-29T19:54:09.805Z,102047.16
2022-11-29T19:56:38.764Z,102047.22
2022-11-29T19:59:07.462Z,102046.34
2022-11-29T20:01:43.650Z,102053.31
2022-11-29T20:04:14.259Z,102053.38
2022-11-29T20:06:44.288Z,102052.59
2022-11-29T20:09:13.416Z,102057.69
2022-11-29T20:11:41.468Z,102054.88
2022-11-29T20:14:11.349Z,102052.97
2022-11-29T20:16:39.333Z,102066.00
2022-11-29T20:19:11.731Z,102056.66
2022-11-29T20:21:44.085Z,102058.03
2022-11-29T20:24:14.202Z,102065.03
2022-11-29T20:26:43.918Z,102053.06
2022-11-29T20:29:13.038Z,102064.38
2022-11-29T20:31:47.759Z,102071.97
2022-11-29T20:34:18.140Z,102070.16
2022-11-29T20:37:06.698Z,102069.47
2022-11-29T20:39:41.116Z,102068.44
2022-11-29T20:42:22.539Z,102071.88
2022-11-29T20:44:54.707Z,102069.47
2022-11-29T20:47:24.417Z,102074.56
2022-11-29T20:49:52.848Z,102076.16
2022-11-29T20:52:33.108Z,102072.81
2022-11-29T20:55:00.982Z,102068.75
2022-11-29T20:57:29.453Z,102068.75
2022-11-29T20:59:57.354Z,102076.28
2022-11-29T21:02:25.400Z,102077.91
2022-11-29T21:04:53.323Z,102075.16
2022-11-29T21:07:21.189Z,102080.75
2022-11-29T21:09:50.463Z,102080.00
2022-11-29T21:12:18.873Z,102080.34
2022-11-29T21:14:47.032Z,102078.88
2022-11-29T21:17:15.522Z,102079.75
2022-11-29T21:19:43.972Z,102075.53
2022-11-29T21:22:17.650Z,102084.63
2022-11-29T21:24:52.862Z,102084.66
2022-11-29T21:27:26.813Z,102077.00
2022-11-29T21:29:55.332Z,102083.91
2022-11-29T21:32:25.108Z,102079.69
2022-11-29T21:34:53.045Z,102078.06
2022-11-29T21:37:22.887Z,102076.25
2022-11-29T21:39:52.251Z,102079.53
2022-11-29T21:42:20.555Z,102077.78
2022-11-29T21:44:48.745Z,102076.34
2022-11-29T21:47:16.811Z,102083.91
2022-11-29T21:49:44.960Z,102081.44
2022-11-29T21:52:16.440Z,102086.44
2022-11-29T21:54:47.248Z,102084.00
2022-11-29T21:57:16.594Z,102082.25
2022-11-29T21:59:44.659Z,102088.16
2022-11-29T22:02:12.512Z,102087.06
2022-11-29T22:04:40.496Z,102081.38
2022-11-29T22:07:08.357Z,102089.63
2022-11-29T22:09:36.204Z,102090.44
2022-11-29T22:12:25.766Z,102092.22
2022-11-29T22:14:54.206Z,102100.31
2022-11-29T22:17:22.081Z,102089.84
2022-11-29T22:19:49.938Z,102103.53
2022-11-29T22:22:18.058Z,102109.44
2022-11-29T22:24:46.274Z,102111.91
2022-11-29T22:27:14.276Z,102102.31
2022-11-29T22:29:42.057Z,102102.66
2022-11-29T22:32:11.251Z,102110.97
2022-11-29T22:34:39.154Z,102103.63
2022-11-29T22:37:07.108Z,102105.94
2022-11-29T22:39:35.002Z,102099.16
2022-11-29T22:42:02.809Z,102106.72
2022-11-29T22:44:31.260Z,102098.88
2022-11-29T22:46:59.178Z,102102.97
2022-11-29T22:49:28.392Z,102102.38
2022-11-29T22:51:56.259Z,102111.03
2022-11-29T22:54:24.054Z,102112.66
2022-11-29T22:56:52.257Z,102111.72
2022-11-29T22:59:20.165Z,102116.16
2022-11-29T23:01:48.325Z,102113.53
2022-11-29T23:04:16.165Z,102108.63
2022-11-29T23:06:46.648Z,102109.25
2022-11-29T23:09:16.792Z,102111.03
2022-11-29T23:11:45.652Z,102112.88
2022-11-29T23:14:14.026Z,102109.25
2022-11-29T23:16:42.097Z,102110.16
2022-11-29T23:19:10.369Z,102107.69
2022-11-29T23:21:39.530Z,102115.56
2022-11-29T23:24:09.356Z,102112.97
2022-11-29T23:26:40.088Z,102108.72
2022-11-29T23:29:09.280Z,102115.72
2022-11-29T23:31:37.200Z,102113.75
2022-11-29T23:34:05.375Z,102114.56
2022-11-29T23:36:33.238Z,102112.69
2022-11-29T23:39:01.060Z,102111.28
2022-11-29T23:41:30.299Z,102121.00
2022-11-29T23:43:59.591Z,102124.50
2022-11-29T23:46:27.491Z,102115.28
2022-11-29T23:48:55.503Z,102114.22
2022-11-29T23:51:23.397Z,102111.91
2022-11-29T23:53:52.526Z,102115.66
2022-11-29T23:56:21.064Z,102121.41
2022-11-29T23:58:50.678Z,102120.25
